sensor_id;sensor_type;location;lat;lon;timestamp;pressure;altitude;pressure_sealevel;temperature;humidity
64053;BME280;50299;49.524;8.536;2023-04-26T00:01:24;100666.38;;;3.85;61.34
64053;BME280;50299;49.524;8.536;2023-04-26T00:03:52;100669.38;;;3.89;62.36
64053;BME280;50299;49.524;8.536;2023-04-26T00:06:21;100669.69;;;3.82;63.88
64053;BME280;50299;49.524;8.536;2023-04-26T00:08:48;100668.91;;;3.72;59.50
64053;BME280;50299;49.524;8.536;2023-04-26T00:11:14;100670.00;;;3.60;58.23
64053;BME280;50299;49.524;8.536;2023-04-26T00:13:41;100673.03;;;3.49;57.00
64053;BME280;50299;49.524;8.536;2023-04-26T00:16:07;100671.69;;;3.46;60.84
64053;BME280;50299;49.524;8.536;2023-04-26T00:18:33;100672.50;;;3.41;62.59
64053;BME280;50299;49.524;8.536;2023-04-26T00:21:00;100671.13;;;3.54;64.61
64053;BME280;50299;49.524;8.536;2023-04-26T00:23:27;100674.94;;;3.53;64.35
64053;BME280;50299;49.524;8.536;2023-04-26T00:25:53;100677.97;;;3.47;56.25
64053;BME280;50299;49.524;8.536;2023-04-26T00:28:19;100684.81;;;3.39;62.31
64053;BME280;50299;49.524;8.536;2023-04-26T00:30:46;100682.34;;;3.48;68.61
64053;BME280;50299;49.524;8.536;2023-04-26T00:33:14;100686.16;;;3.52;61.01
64053;BME280;50299;49.524;8.536;2023-04-26T00:35:40;100683.16;;;3.43;60.23
64053;BME280;50299;49.524;8.536;2023-04-26T00:38:06;100676.09;;;3.37;59.66
64053;BME280;50299;49.524;8.536;2023-04-26T00:40:33;100670.88;;;3.35;60.20
64053;BME280;50299;49.524;8.536;2023-04-26T00:43:01;100682.91;;;3.29;61.29
64053;BME280;50299;49.524;8.536;2023-04-26T00:45:28;100673.31;;;3.11;58.15
64053;BME280;50299;49.524;8.536;2023-04-26T00:47:55;100674.13;;;2.76;56.79
64053;BME280;50299;49.524;8.536;2023-04-26T00:50:22;100680.66;;;2.55;58.53
64053;BME280;50299;49.524;8.536;2023-04-26T00:52:49;100677.38;;;2.73;64.19
64053;BME280;50299;49.524;8.536;2023-04-26T00:55:17;100682.56;;;2.75;61.15
64053;BME280;50299;49.524;8.536;2023-04-26T00:57:44;100678.50;;;2.72;60.11
64053;BME280;50299;49.524;8.536;2023-04-26T01:00:11;100677.09;;;2.69;60.48
64053;BME280;50299;49.524;8.536;2023-04-26T01:02:40;100678.75;;;2.70;60.17
64053;BME280;50299;49.524;8.536;2023-04-26T01:05:07;100671.94;;;2.63;60.48
64053;BME280;50299;49.524;8.536;2023-04-26T01:07:37;100672.72;;;2.48;58.38
64053;BME280;50299;49.524;8.536;2023-04-26T01:10:04;100678.16;;;2.53;60.24
64053;BME280;50299;49.524;8.536;2023-04-26T01:12:31;100672.72;;;2.53;60.91
64053;BME280;50299;49.524;8.536;2023-04-26T01:14:59;100674.34;;;2.49;61.03
64053;BME280;50299;49.524;8.536;2023-04-26T01:17:26;100672.47;;;2.55;60.69
64053;BME280;50299;49.524;8.536;2023-04-26T01:19:52;100684.47;;;2.59;59.52
64053;BME280;50299;49.524;8.536;2023-04-26T01:22:19;100678.44;;;2.52;59.11
64053;BME280;50299;49.524;8.536;2023-04-26T01:24:49;100678.97;;;2.49;62.20
64053;BME280;50299;49.524;8.536;2023-04-26T01:27:16;100677.88;;;2.44;60.31
64053;BME280;50299;49.524;8.536;2023-04-26T01:29:42;100678.69;;;2.45;62.46
64053;BME280;50299;49.524;8.536;2023-04-26T01:32:10;100681.19;;;2.52;61.25
64053;BME280;50299;49.524;8.536;2023-04-26T01:34:37;100681.44;;;2.50;60.95
64053;BME280;50299;49.524;8.536;2023-04-26T01:37:03;100665.63;;;2.47;60.20
64053;BME280;50299;49.524;8.536;2023-04-26T01:39:29;100663.69;;;2.42;59.82
64053;BME280;50299;49.524;8.536;2023-04-26T01:41:56;100663.94;;;2.31;58.65
64053;BME280;50299;49.524;8.536;2023-04-26T01:44:23;100671.53;;;2.18;58.83
64053;BME280;50299;49.524;8.536;2023-04-26T01:46:50;100662.47;;;2.03;59.02
64053;BME280;50299;49.524;8.536;2023-04-26T01:49:16;100667.31;;;1.90;57.60
64053;BME280;50299;49.524;8.536;2023-04-26T01:51:42;100671.88;;;1.80;57.79
64053;BME280;50299;49.524;8.536;2023-04-26T01:54:09;100669.09;;;1.64;57.97
64053;BME280;50299;49.524;8.536;2023-04-26T01:56:35;100665.22;;;1.55;58.53
64053;BME280;50299;49.524;8.536;2023-04-26T01:59:01;100664.69;;;1.58;60.93
64053;BME280;50299;49.524;8.536;2023-04-26T02:01:28;100663.41;;;1.76;63.79
64053;BME280;50299;49.524;8.536;2023-04-26T02:03:54;100660.78;;;1.97;66.38
64053;BME280;50299;49.524;8.536;2023-04-26T02:06:21;100666.63;;;2.20;63.64
64053;BME280;50299;49.524;8.536;2023-04-26T02:08:47;100664.69;;;2.21;60.91
64053;BME280;50299;49.524;8.536;2023-04-26T02:11:14;100670.16;;;2.21;61.92
64053;BME280;50299;49.524;8.536;2023-04-26T02:13:41;100671.78;;;2.17;58.58
64053;BME280;50299;49.524;8.536;2023-04-26T02:16:07;100671.66;;;1.81;55.95
64053;BME280;50299;49.524;8.536;2023-04-26T02:18:34;100670.97;;;1.59;56.87
64053;BME280;50299;49.524;8.536;2023-04-26T02:21:00;100673.03;;;1.41;58.32
64053;BME280;50299;49.524;8.536;2023-04-26T02:23:26;100667.22;;;1.33;57.82
64053;BME280;50299;49.524;8.536;2023-04-26T02:25:55;100673.22;;;1.35;60.04
64053;BME280;50299;49.524;8.536;2023-04-26T02:28:22;100667.22;;;1.33;58.01
64053;BME280;50299;49.524;8.536;2023-04-26T02:30:48;100672.59;;;1.23;57.30
64053;BME280;50299;49.524;8.536;2023-04-26T02:33:16;100679.38;;;1.15;58.21
64053;BME280;50299;49.524;8.536;2023-04-26T02:35:42;100667.34;;;1.11;58.29
64053;BME280;50299;49.524;8.536;2023-04-26T02:38:09;100679.88;;;1.12;58.70
64053;BME280;50299;49.524;8.536;2023-04-26T02:40:35;100671.59;;;1.02;58.54
64053;BME280;50299;49.524;8.536;2023-04-26T02:43:02;100672.81;;;0.84;57.65
64053;BME280;50299;49.524;8.536;2023-04-26T02:45:28;100669.44;;;0.71;59.46
64053;BME280;50299;49.524;8.536;2023-04-26T02:47:55;100669.25;;;0.78;61.04
64053;BME280;50299;49.524;8.536;2023-04-26T02:50:21;100671.81;;;0.63;65.63
64053;BME280;50299;49.524;8.536;2023-04-26T02:52:48;100673.00;;;0.72;62.21
64053;BME280;50299;49.524;8.536;2023-04-26T02:55:14;100669.50;;;0.77;58.91
64053;BME280;50299;49.524;8.536;2023-04-26T02:57:40;100677.41;;;0.78;61.00
64053;BME280;50299;49.524;8.536;2023-04-26T03:00:07;100667.69;;;0.87;61.19
64053;BME280;50299;49.524;8.536;2023-04-26T03:02:34;100672.09;;;0.93;62.77
64053;BME280;50299;49.524;8.536;2023-04-26T03:05:01;100672.72;;;1.06;63.63
64053;BME280;50299;49.524;8.536;2023-04-26T03:07:28;100683.47;;;1.23;64.34
64053;BME280;50299;49.524;8.536;2023-04-26T03:09:54;100671.25;;;1.25;62.88
64053;BME280;50299;49.524;8.536;2023-04-26T03:12:23;100675.13;;;1.34;64.44
64053;BME280;50299;49.524;8.536;2023-04-26T03:14:51;100678.53;;;1.52;65.31
64053;BME280;50299;49.524;8.536;2023-04-26T03:17:18;100672.91;;;1.63;63.37
64053;BME280;50299;49.524;8.536;2023-04-26T03:19:45;100677.34;;;1.80;67.94
64053;BME280;50299;49.524;8.536;2023-04-26T03:22:11;100671.69;;;1.97;63.91
64053;BME280;50299;49.524;8.536;2023-04-26T03:24:42;100669.56;;;2.04;64.23
64053;BME280;50299;49.524;8.536;2023-04-26T03:27:08;100673.16;;;2.14;66.45
64053;BME280;50299;49.524;8.536;2023-04-26T03:29:35;100676.44;;;2.22;66.14
64053;BME280;50299;49.524;8.536;2023-04-26T03:32:01;100672.06;;;2.20;63.42
64053;BME280;50299;49.524;8.536;2023-04-26T03:34:28;100675.06;;;2.14;63.41
64053;BME280;50299;49.524;8.536;2023-04-26T03:36:54;100677.22;;;2.12;63.74
64053;BME280;50299;49.524;8.536;2023-04-26T03:39:21;100679.94;;;2.07;60.53
64053;BME280;50299;49.524;8.536;2023-04-26T03:41:47;100680.97;;;1.90;62.60
64053;BME280;50299;49.524;8.536;2023-04-26T03:44:16;100681.00;;;2.01;77.43
64053;BME280;50299;49.524;8.536;2023-04-26T03:46:42;100684.47;;;2.64;84.43
64053;BME280;50299;49.524;8.536;2023-04-26T03:49:09;100682.53;;;2.54;68.33
64053;BME280;50299;49.524;8.536;2023-04-26T03:51:38;100675.97;;;2.40;65.38
64053;BME280;50299;49.524;8.536;2023-04-26T03:54:04;100682.75;;;1.69;59.78
64053;BME280;50299;49.524;8.536;2023-04-26T03:56:31;100674.81;;;1.26;59.76
64053;BME280;50299;49.524;8.536;2023-04-26T03:58:57;100674.81;;;0.93;60.19
64053;BME280;50299;49.524;8.536;2023-04-26T04:01:25;100680.50;;;0.60;61.38
64053;BME280;50299;49.524;8.536;2023-04-26T04:03:51;100672.16;;;0.44;62.71
64053;BME280;50299;49.524;8.536;2023-04-26T04:06:20;100675.56;;;0.30;63.15
64053;BME280;50299;49.524;8.536;2023-04-26T04:08:50;100666.97;;;0.16;63.23
64053;BME280;50299;49.524;8.536;2023-04-26T04:11:17;100665.88;;;0.17;65.80
64053;BME280;50299;49.524;8.536;2023-04-26T04:13:43;100670.19;;;0.13;64.32
64053;BME280;50299;49.524;8.536;2023-04-26T04:16:09;100666.06;;;0.10;64.73
64053;BME280;50299;49.524;8.536;2023-04-26T04:18:36;100670.88;;;0.03;65.03
64053;BME280;50299;49.524;8.536;2023-04-26T04:21:02;100674.34;;;-0.01;63.92
64053;BME280;50299;49.524;8.536;2023-04-26T04:23:29;100672.06;;;-0.10;64.95
64053;BME280;50299;49.524;8.536;2023-04-26T04:25:55;100679.66;;;-0.12;64.22
64053;BME280;50299;49.524;8.536;2023-04-26T04:28:31;100677.44;;;-0.15;64.25
64053;BME280;50299;49.524;8.536;2023-04-26T04:30:57;100683.53;;;-0.08;65.67
64053;BME280;50299;49.524;8.536;2023-04-26T04:33:28;100684.63;;;-0.09;64.58
64053;BME280;50299;49.524;8.536;2023-04-26T04:35:57;100679.66;;;-0.12;63.83
64053;BME280;50299;49.524;8.536;2023-04-26T04:38:23;100684.03;;;-0.11;68.40
64053;BME280;50299;49.524;8.536;2023-04-26T04:40:50;100683.91;;;0.01;67.21
64053;BME280;50299;49.524;8.536;2023-04-26T04:43:17;100685.22;;;-0.01;65.74
64053;BME280;50299;49.524;8.536;2023-04-26T04:45:44;100689.28;;;-0.04;71.24
64053;BME280;50299;49.524;8.536;2023-04-26T04:48:15;100698.75;;;0.37;71.09
64053;BME280;50299;49.524;8.536;2023-04-26T04:50:44;100704.41;;;0.58;69.69
64053;BME280;50299;49.524;8.536;2023-04-26T04:53:11;100713.50;;;0.68;66.60
64053;BME280;50299;49.524;8.536;2023-04-26T04:55:38;100719.06;;;0.79;70.08
64053;BME280;50299;49.524;8.536;2023-04-26T04:58:05;100712.53;;;0.80;73.75
64053;BME280;50299;49.524;8.536;2023-04-26T05:00:31;100709.31;;;1.15;80.86
64053;BME280;50299;49.524;8.536;2023-04-26T05:03:00;100713.72;;;1.21;68.76
64053;BME280;50299;49.524;8.536;2023-04-26T05:05:26;100716.09;;;1.12;67.83
64053;BME280;50299;49.524;8.536;2023-04-26T05:07:53;100724.53;;;1.11;68.18
64053;BME280;50299;49.524;8.536;2023-04-26T05:10:19;100720.38;;;1.03;66.14
64053;BME280;50299;49.524;8.536;2023-04-26T05:12:46;100725.25;;;1.01;67.46
64053;BME280;50299;49.524;8.536;2023-04-26T05:15:15;100716.25;;;1.01;67.11
64053;BME280;50299;49.524;8.536;2023-04-26T05:17:49;100723.97;;;1.09;68.06
64053;BME280;50299;49.524;8.536;2023-04-26T05:20:21;100723.53;;;1.22;69.11
64053;BME280;50299;49.524;8.536;2023-04-26T05:22:47;100726.75;;;1.46;73.08
64053;BME280;50299;49.524;8.536;2023-04-26T05:25:14;100728.91;;;1.81;72.16
64053;BME280;50299;49.524;8.536;2023-04-26T05:27:42;100733.16;;;2.09;72.45
64053;BME280;50299;49.524;8.536;2023-04-26T05:30:11;100725.31;;;2.33;71.46
64053;BME280;50299;49.524;8.536;2023-04-26T05:32:37;100733.03;;;2.52;72.22
64053;BME280;50299;49.524;8.536;2023-04-26T05:35:04;100724.34;;;2.70;71.63
64053;BME280;50299;49.524;8.536;2023-04-26T05:37:33;100725.47;;;3.00;74.51
64053;BME280;50299;49.524;8.536;2023-04-26T05:40:01;100733.75;;;3.25;72.70
64053;BME280;50299;49.524;8.536;2023-04-26T05:42:29;100744.13;;;3.54;77.10
64053;BME280;50299;49.524;8.536;2023-04-26T05:44:57;100736.41;;;3.81;76.13
64053;BME280;50299;49.524;8.536;2023-04-26T05:47:24;100744.28;;;4.08;75.43
64053;BME280;50299;49.524;8.536;2023-04-26T05:49:56;100749.94;;;4.27;74.38
64053;BME280;50299;49.524;8.536;2023-04-26T05:52:23;100749.31;;;4.51;76.21
64053;BME280;50299;49.524;8.536;2023-04-26T05:54:49;100743.75;;;4.66;74.02
64053;BME280;50299;49.524;8.536;2023-04-26T05:57:16;100744.78;;;4.85;76.07
64053;BME280;50299;49.524;8.536;2023-04-26T05:59:43;100751.81;;;5.02;73.76
64053;BME280;50299;49.524;8.536;2023-04-26T06:02:24;100749.78;;;5.12;70.26
64053;BME280;50299;49.524;8.536;2023-04-26T06:04:51;100755.53;;;5.16;68.88
64053;BME280;50299;49.524;8.536;2023-04-26T06:07:22;100758.72;;;5.28;73.89
64053;BME280;50299;49.524;8.536;2023-04-26T06:09:48;100767.28;;;5.56;77.63
64053;BME280;50299;49.524;8.536;2023-04-26T06:12:19;100769.53;;;5.78;74.00
64053;BME280;50299;49.524;8.536;2023-04-26T06:14:45;100765.44;;;6.04;78.74
64053;BME280;50299;49.524;8.536;2023-04-26T06:17:14;100766.69;;;6.17;73.92
64053;BME280;50299;49.524;8.536;2023-04-26T06:19:41;100767.56;;;6.36;71.00
64053;BME280;50299;49.524;8.536;2023-04-26T06:22:10;100771.59;;;6.44;77.41
64053;BME280;50299;49.524;8.536;2023-04-26T06:24:37;100777.38;;;6.67;76.68
64053;BME280;50299;49.524;8.536;2023-04-26T06:27:03;100764.56;;;6.57;70.03
64053;BME280;50299;49.524;8.536;2023-04-26T06:29:35;100772.63;;;6.72;75.42
64053;BME280;50299;49.524;8.536;2023-04-26T06:32:02;100773.97;;;6.94;72.90
64053;BME280;50299;49.524;8.536;2023-04-26T06:34:28;100777.75;;;7.17;80.83
64053;BME280;50299;49.524;8.536;2023-04-26T06:36:56;100774.78;;;7.32;74.46
64053;BME280;50299;49.524;8.536;2023-04-26T06:39:25;100773.19;;;7.45;62.80
64053;BME280;50299;49.524;8.536;2023-04-26T06:41:51;100773.94;;;7.50;76.26
64053;BME280;50299;49.524;8.536;2023-04-26T06:44:18;100767.47;;;7.41;61.25
64053;BME280;50299;49.524;8.536;2023-04-26T06:46:44;100766.97;;;7.01;70.73
64053;BME280;50299;49.524;8.536;2023-04-26T06:49:13;100775.38;;;7.10;64.40
64053;BME280;50299;49.524;8.536;2023-04-26T06:51:51;100765.94;;;7.16;74.54
64053;BME280;50299;49.524;8.536;2023-04-26T06:54:20;100758.59;;;7.11;65.56
64053;BME280;50299;49.524;8.536;2023-04-26T06:56:54;100753.19;;;7.39;75.71
64053;BME280;50299;49.524;8.536;2023-04-26T06:59:21;100770.72;;;7.62;80.66
64053;BME280;50299;49.524;8.536;2023-04-26T07:01:51;100760.09;;;7.88;80.90
64053;BME280;50299;49.524;8.536;2023-04-26T07:04:18;100761.13;;;8.06;74.45
64053;BME280;50299;49.524;8.536;2023-04-26T07:06:48;100761.84;;;8.11;72.19
64053;BME280;50299;49.524;8.536;2023-04-26T07:09:19;100763.69;;;8.30;81.59
64053;BME280;50299;49.524;8.536;2023-04-26T07:11:45;100758.28;;;8.52;77.96
64053;BME280;50299;49.524;8.536;2023-04-26T07:14:15;100757.06;;;8.72;78.10
64053;BME280;50299;49.524;8.536;2023-04-26T07:16:43;100751.94;;;8.66;71.86
64053;BME280;50299;49.524;8.536;2023-04-26T07:19:13;100766.63;;;8.75;77.18
64053;BME280;50299;49.524;8.536;2023-04-26T07:21:41;100762.53;;;8.86;73.76
64053;BME280;50299;49.524;8.536;2023-04-26T07:24:07;100772.75;;;8.85;74.20
64053;BME280;50299;49.524;8.536;2023-04-26T07:26:40;100758.75;;;9.18;79.67
64053;BME280;50299;49.524;8.536;2023-04-26T07:29:07;100762.09;;;9.51;77.16
64053;BME280;50299;49.524;8.536;2023-04-26T07:31:36;100771.41;;;9.86;79.49
64053;BME280;50299;49.524;8.536;2023-04-26T07:34:02;100768.25;;;10.02;69.84
64053;BME280;50299;49.524;8.536;2023-04-26T07:36:29;100762.91;;;9.52;62.98
64053;BME280;50299;49.524;8.536;2023-04-26T07:39:02;100761.31;;;9.37;69.59
64053;BME280;50299;49.524;8.536;2023-04-26T07:41:30;100759.38;;;9.60;74.18
64053;BME280;50299;49.524;8.536;2023-04-26T07:44:02;100759.25;;;9.88;73.14
64053;BME280;50299;49.524;8.536;2023-04-26T07:46:29;100757.53;;;10.00;65.34
64053;BME280;50299;49.524;8.536;2023-04-26T07:48:57;100760.00;;;10.10;72.45
64053;BME280;50299;49.524;8.536;2023-04-26T07:51:24;100769.91;;;10.11;68.97
64053;BME280;50299;49.524;8.536;2023-04-26T07:53:53;100767.84;;;9.86;69.12
64053;BME280;50299;49.524;8.536;2023-04-26T07:56:29;100767.03;;;9.63;66.24
64053;BME280;50299;49.524;8.536;2023-04-26T07:58:55;100767.41;;;9.48;62.38
64053;BME280;50299;49.524;8.536;2023-04-26T08:01:24;100771.69;;;9.76;67.23
64053;BME280;50299;49.524;8.536;2023-04-26T08:03:52;100773.16;;;10.05;69.55
64053;BME280;50299;49.524;8.536;2023-04-26T08:06:20;100758.78;;;10.25;69.45
64053;BME280;50299;49.524;8.536;2023-04-26T08:08:48;100764.34;;;10.43;69.16
64053;BME280;50299;49.524;8.536;2023-04-26T08:11:16;100761.59;;;10.51;69.33
64053;BME280;50299;49.524;8.536;2023-04-26T08:13:42;100765.88;;;10.66;69.20
64053;BME280;50299;49.524;8.536;2023-04-26T08:16:09;100758.44;;;10.84;69.01
64053;BME280;50299;49.524;8.536;2023-04-26T08:18:36;100759.78;;;11.13;75.27
64053;BME280;50299;49.524;8.536;2023-04-26T08:21:09;100770.03;;;11.21;56.29
64053;BME280;50299;49.524;8.536;2023-04-26T08:23:40;100765.94;;;11.01;50.92
64053;BME280;50299;49.524;8.536;2023-04-26T08:26:09;100765.78;;;10.97;65.05
64053;BME280;50299;49.524;8.536;2023-04-26T08:28:38;100765.63;;;10.94;61.28
64053;BME280;50299;49.524;8.536;2023-04-26T08:31:06;100759.78;;;11.04;54.16
64053;BME280;50299;49.524;8.536;2023-04-26T08:33:37;100757.50;;;11.15;61.21
64053;BME280;50299;49.524;8.536;2023-04-26T08:36:06;100755.53;;;11.50;66.82
64053;BME280;50299;49.524;8.536;2023-04-26T08:38:35;100766.56;;;11.76;58.27
64053;BME280;50299;49.524;8.536;2023-04-26T08:41:03;100760.06;;;11.80;59.44
64053;BME280;50299;49.524;8.536;2023-04-26T08:43:33;100754.94;;;12.00;56.68
64053;BME280;50299;49.524;8.536;2023-04-26T08:46:03;100754.84;;;12.26;51.40
64053;BME280;50299;49.524;8.536;2023-04-26T08:48:36;100748.22;;;12.01;54.16
64053;BME280;50299;49.524;8.536;2023-04-26T08:51:03;100748.84;;;12.15;58.70
64053;BME280;50299;49.524;8.536;2023-04-26T08:53:33;100749.63;;;12.24;48.61
64053;BME280;50299;49.524;8.536;2023-04-26T08:56:01;100746.63;;;12.38;56.67
64053;BME280;50299;49.524;8.536;2023-04-26T08:58:34;100745.38;;;12.56;63.39
64053;BME280;50299;49.524;8.536;2023-04-26T09:01:16;100737.47;;;12.38;55.20
64053;BME280;50299;49.524;8.536;2023-04-26T09:03:43;100739.69;;;12.23;52.14
64053;BME280;50299;49.524;8.536;2023-04-26T09:06:13;100739.56;;;12.11;41.95
64053;BME280;50299;49.524;8.536;2023-04-26T09:08:40;100740.63;;;12.57;51.59
64053;BME280;50299;49.524;8.536;2023-04-26T09:11:08;100729.06;;;12.85;47.53
64053;BME280;50299;49.524;8.536;2023-04-26T09:13:34;100732.16;;;13.25;48.97
64053;BME280;50299;49.524;8.536;2023-04-26T09:16:01;100724.03;;;13.20;50.63
64053;BME280;50299;49.524;8.536;2023-04-26T09:18:30;100734.72;;;13.51;47.11
64053;BME280;50299;49.524;8.536;2023-04-26T09:21:04;100731.28;;;13.66;53.40
64053;BME280;50299;49.524;8.536;2023-04-26T09:23:31;100728.06;;;13.89;49.19
64053;BME280;50299;49.524;8.536;2023-04-26T09:26:20;100732.53;;;13.36;42.14
64053;BME280;50299;49.524;8.536;2023-04-26T09:28:47;100735.56;;;13.10;44.11
64053;BME280;50299;49.524;8.536;2023-04-26T09:31:46;100737.84;;;13.07;48.40
64053;BME280;50299;49.524;8.536;2023-04-26T09:34:15;100737.75;;;13.58;59.24
64053;BME280;50299;49.524;8.536;2023-04-26T09:36:54;100734.28;;;13.40;41.97
64053;BME280;50299;49.524;8.536;2023-04-26T09:39:29;100730.41;;;13.20;54.64
64053;BME280;50299;49.524;8.536;2023-04-26T09:41:57;100735.25;;;13.23;40.91
64053;BME280;50299;49.524;8.536;2023-04-26T09:44:25;100723.41;;;13.35;59.19
64053;BME280;50299;49.524;8.536;2023-04-26T09:47:12;100730.09;;;13.34;42.62
64053;BME280;50299;49.524;8.536;2023-04-26T09:49:44;100719.78;;;12.80;32.64
64053;BME280;50299;49.524;8.536;2023-04-26T09:52:14;100725.06;;;12.94;39.16
64053;BME280;50299;49.524;8.536;2023-04-26T09:54:52;100728.13;;;13.01;52.13
64053;BME280;50299;49.524;8.536;2023-04-26T09:57:20;100725.72;;;12.91;35.65
64053;BME280;50299;49.524;8.536;2023-04-26T09:59:53;100726.34;;;13.18;50.14
64053;BME280;50299;49.524;8.536;2023-04-26T10:02:23;100724.34;;;13.39;44.98
64053;BME280;50299;49.524;8.536;2023-04-26T10:04:52;100711.69;;;13.29;44.10
64053;BME280;50299;49.524;8.536;2023-04-26T10:07:21;100712.63;;;12.79;32.39
64053;BME280;50299;49.524;8.536;2023-04-26T10:09:48;100713.44;;;12.50;46.99
64053;BME280;50299;49.524;8.536;2023-04-26T10:12:16;100715.06;;;12.81;51.81
64053;BME280;50299;49.524;8.536;2023-04-26T10:14:47;100708.75;;;12.93;37.88
64053;BME280;50299;49.524;8.536;2023-04-26T10:17:14;100709.00;;;12.28;40.41
64053;BME280;50299;49.524;8.536;2023-04-26T10:19:47;100709.47;;;11.92;37.07
64053;BME280;50299;49.524;8.536;2023-04-26T10:22:20;100706.22;;;11.99;50.55
64053;BME280;50299;49.524;8.536;2023-04-26T10:24:48;100711.09;;;12.02;38.45
64053;BME280;50299;49.524;8.536;2023-04-26T10:27:15;100706.13;;;12.46;48.31
64053;BME280;50299;49.524;8.536;2023-04-26T10:32:20;100707.06;;;13.00;50.30
64053;BME280;50299;49.524;8.536;2023-04-26T10:35:10;100701.16;;;13.02;43.21
64053;BME280;50299;49.524;8.536;2023-04-26T10:40:47;100706.09;;;11.87;40.96
64053;BME280;50299;49.524;8.536;2023-04-26T10:45:43;100700.81;;;10.51;34.15
64053;BME280;50299;49.524;8.536;2023-04-26T10:48:30;100697.19;;;10.25;34.49
64053;BME280;50299;49.524;8.536;2023-04-26T10:59:18;100685.91;;;11.04;51.27
64053;BME280;50299;49.524;8.536;2023-04-26T11:02:09;100679.06;;;11.19;51.13
64053;BME280;50299;49.524;8.536;2023-04-26T11:04:51;100666.72;;;11.64;37.75
64053;BME280;50299;49.524;8.536;2023-04-26T11:07:35;100667.81;;;11.89;41.21
64053;BME280;50299;49.524;8.536;2023-04-26T11:10:02;100656.91;;;11.83;37.78
64053;BME280;50299;49.524;8.536;2023-04-26T11:12:29;100664.41;;;10.67;32.73
64053;BME280;50299;49.524;8.536;2023-04-26T11:14:58;100658.34;;;10.30;37.35
64053;BME280;50299;49.524;8.536;2023-04-26T11:17:26;100658.22;;;11.13;39.74
64053;BME280;50299;49.524;8.536;2023-04-26T11:19:53;100656.47;;;11.55;44.25
64053;BME280;50299;49.524;8.536;2023-04-26T11:22:21;100660.03;;;12.12;38.09
64053;BME280;50299;49.524;8.536;2023-04-26T11:24:48;100657.88;;;12.68;45.27
64053;BME280;50299;49.524;8.536;2023-04-26T11:27:15;100656.72;;;13.23;43.19
64053;BME280;50299;49.524;8.536;2023-04-26T11:29:41;100658.56;;;13.52;42.55
64053;BME280;50299;49.524;8.536;2023-04-26T11:32:08;100649.34;;;13.85;45.10
64053;BME280;50299;49.524;8.536;2023-04-26T11:34:37;100639.94;;;14.26;40.89
64053;BME280;50299;49.524;8.536;2023-04-26T11:37:07;100638.56;;;15.13;52.96
64053;BME280;50299;49.524;8.536;2023-04-26T11:39:34;100628.91;;;15.70;45.27
64053;BME280;50299;49.524;8.536;2023-04-26T11:42:08;100635.84;;;15.92;42.03
64053;BME280;50299;49.524;8.536;2023-04-26T11:44:39;100632.34;;;16.11;48.38
64053;BME280;50299;49.524;8.536;2023-04-26T11:47:06;100633.31;;;16.18;36.45
64053;BME280;50299;49.524;8.536;2023-04-26T11:49:37;100628.09;;;15.53;36.27
64053;BME280;50299;49.524;8.536;2023-04-26T11:52:05;100627.13;;;15.46;29.95
64053;BME280;50299;49.524;8.536;2023-04-26T11:54:35;100621.28;;;15.83;46.05
64053;BME280;50299;49.524;8.536;2023-04-26T11:57:16;100621.00;;;16.03;42.12
64053;BME280;50299;49.524;8.536;2023-04-26T11:59:44;100620.88;;;16.16;34.00
64053;BME280;50299;49.524;8.536;2023-04-26T12:02:11;100623.59;;;16.12;46.15
64053;BME280;50299;49.524;8.536;2023-04-26T12:04:40;100618.22;;;16.03;29.42
64053;BME280;50299;49.524;8.536;2023-04-26T12:07:10;100614.69;;;16.22;39.77
64053;BME280;50299;49.524;8.536;2023-04-26T12:09:39;100612.66;;;16.39;28.82
64053;BME280;50299;49.524;8.536;2023-04-26T12:12:07;100619.38;;;16.18;42.10
64053;BME280;50299;49.524;8.536;2023-04-26T12:14:37;100616.50;;;16.50;52.60
64053;BME280;50299;49.524;8.536;2023-04-26T12:17:06;100620.88;;;16.51;32.08
64053;BME280;50299;49.524;8.536;2023-04-26T12:19:34;100621.59;;;16.48;46.65
64053;BME280;50299;49.524;8.536;2023-04-26T12:22:07;100617.44;;;16.38;32.00
64053;BME280;50299;49.524;8.536;2023-04-26T12:24:36;100622.25;;;16.22;26.86
64053;BME280;50299;49.524;8.536;2023-04-26T12:27:06;100619.69;;;14.78;31.21
64053;BME280;50299;49.524;8.536;2023-04-26T12:29:33;100611.84;;;14.55;26.84
64053;BME280;50299;49.524;8.536;2023-04-26T12:32:01;100613.22;;;13.85;40.57
64053;BME280;50299;49.524;8.536;2023-04-26T12:34:28;100610.44;;;14.09;46.60
64053;BME280;50299;49.524;8.536;2023-04-26T12:36:55;100622.03;;;13.87;39.56
64053;BME280;50299;49.524;8.536;2023-04-26T12:39:22;100623.00;;;13.45;37.86
64053;BME280;50299;49.524;8.536;2023-04-26T12:41:51;100629.56;;;13.41;38.72
64053;BME280;50299;49.524;8.536;2023-04-26T12:44:18;100620.19;;;13.78;31.97
64053;BME280;50299;49.524;8.536;2023-04-26T12:46:48;100609.03;;;14.40;47.40
64053;BME280;50299;49.524;8.536;2023-04-26T12:49:17;100610.59;;;15.09;44.46
64053;BME280;50299;49.524;8.536;2023-04-26T12:51:46;100612.84;;;15.63;40.74
64053;BME280;50299;49.524;8.536;2023-04-26T12:54:12;100615.78;;;16.18;44.57
64053;BME280;50299;49.524;8.536;2023-04-26T12:56:42;100620.09;;;16.70;42.13
64053;BME280;50299;49.524;8.536;2023-04-26T12:59:11;100614.09;;;17.30;49.14
64053;BME280;50299;49.524;8.536;2023-04-26T13:01:38;100609.13;;;17.88;47.64
64053;BME280;50299;49.524;8.536;2023-04-26T13:04:06;100604.19;;;18.05;27.62
64053;BME280;50299;49.524;8.536;2023-04-26T13:06:33;100601.53;;;17.62;29.12
64053;BME280;50299;49.524;8.536;2023-04-26T13:09:03;100602.00;;;17.68;43.29
64053;BME280;50299;49.524;8.536;2023-04-26T13:11:35;100604.84;;;17.25;30.81
64053;BME280;50299;49.524;8.536;2023-04-26T13:14:01;100608.28;;;16.22;26.32
64053;BME280;50299;49.524;8.536;2023-04-26T13:16:29;100603.03;;;15.38;35.66
64053;BME280;50299;49.524;8.536;2023-04-26T13:18:56;100606.72;;;14.70;34.20